Time;durP1;ratioP1;P1;durP2;ratioP2;P2;SDS_P1;SDS_P2;PMS_P1;PMS_P2;Temp;Humidity;BMP_temperature;BMP_pressure;BME280_temperature;BME280_humidity;BME280_pressure;Samples;Min_cycle;Max_cycle;Signal;HPM_P1;HPM_P2
2024/04/06 00:02:26;;;;;;;3.53;2.17;;;;;;;;;;5885414;28;20087;-67
2024/04/06 00:05:18;;;;;;;3.10;1.92;;;;;;;;;;5891739;28;20060;-67
2024/04/06 00:08:07;;;;;;;1.60;1.42;;;;;;;;;;5870973;28;20423;-67
2024/04/06 00:10:57;;;;;;;1.80;1.65;;;;;;;;;;5887445;28;20107;-67
2024/04/06 00:13:47;;;;;;;2.15;1.75;;;;;;;;;;5870244;28;20045;-67
2024/04/06 00:16:37;;;;;;;0.77;0.77;;;;;;;;;;5870593;28;20057;-67
2024/04/06 00:19:27;;;;;;;4.35;1.58;;;;;;;;;;5886873;28;20045;-67
2024/04/06 00:22:16;;;;;;;2.25;1.60;;;;;;;;;;5886845;28;20045;-67
2024/04/06 00:25:06;;;;;;;12.60;1.95;;;;;;;;;;5886167;28;20098;-67
2024/04/06 00:27:56;;;;;;;3.08;1.20;;;;;;;;;;5887287;28;20053;-67
2024/04/06 00:30:45;;;;;;;4.43;1.95;;;;;;;;;;5886925;28;20437;-67
2024/04/06 00:33:35;;;;;;;1.75;1.65;;;;;;;;;;5886534;28;20049;-67
2024/04/06 00:36:25;;;;;;;2.95;1.92;;;;;;;;;;5886550;28;20049;-67
2024/04/06 00:39:15;;;;;;;9.63;2.00;;;;;;;;;;5886555;28;20048;-67
2024/04/06 00:42:07;;;;;;;6.57;1.58;;;;;;;;;;5869982;28;20044;-67
2024/04/06 00:44:57;;;;;;;1.98;1.52;;;;;;;;;;5870836;28;20055;-67
2024/04/06 00:47:47;;;;;;;3.50;1.75;;;;;;;;;;5886262;28;20049;-67
2024/04/06 00:50:39;;;;;;;4.30;1.85;;;;;;;;;;5886474;28;20056;-67
2024/04/06 00:53:29;;;;;;;1.77;1.52;;;;;;;;;;5886562;28;20045;-67
2024/04/06 00:56:19;;;;;;;3.33;1.88;;;;;;;;;;5886377;28;20049;-67
2024/04/06 00:59:09;;;;;;;3.28;2.33;;;;;;;;;;5886313;28;20048;-67
2024/04/06 01:01:59;;;;;;;9.43;3.25;;;;;;;;;;5886676;28;20044;-67
2024/04/06 01:04:49;;;;;;;3.35;2.60;;;;;;;;;;5886259;28;20175;-67
2024/04/06 01:07:42;;;;;;;3.85;2.65;;;;;;;;;;5902801;28;20057;-67
2024/04/06 01:10:33;;;;;;;5.85;3.47;;;;;;;;;;5902522;28;20052;-67
2024/04/06 01:13:22;;;;;;;3.72;2.25;;;;;;;;;;5885677;28;20048;-67
2024/04/06 01:16:12;;;;;;;4.25;2.25;;;;;;;;;;5885756;28;20056;-67
2024/04/06 01:19:02;;;;;;;2.97;2.53;;;;;;;;;;5885774;28;20049;-67
2024/04/06 01:21:52;;;;;;;2.55;2.25;;;;;;;;;;5886074;28;20045;-67
2024/04/06 01:24:42;;;;;;;3.08;2.20;;;;;;;;;;5852363;28;20044;-67
2024/04/06 01:27:32;;;;;;;4.57;2.45;;;;;;;;;;5885408;28;20522;-67
2024/04/06 01:30:21;;;;;;;7.38;2.28;;;;;;;;;;5885457;28;20090;-67
2024/04/06 01:33:11;;;;;;;2.95;1.75;;;;;;;;;;5885232;28;20550;-67
2024/04/06 01:36:01;;;;;;;3.85;2.53;;;;;;;;;;5884804;28;20049;-67
2024/04/06 01:38:51;;;;;;;2.83;2.05;;;;;;;;;;5885519;28;20045;-67
2024/04/06 01:41:46;;;;;;;3.63;1.90;;;;;;;;;;5885067;28;20052;-67
2024/04/06 01:44:35;;;;;;;3.47;2.30;;;;;;;;;;5885205;28;20052;-67
2024/04/06 01:47:25;;;;;;;2.60;2.40;;;;;;;;;;5885314;28;20044;-67
2024/04/06 01:50:15;;;;;;;4.22;2.65;;;;;;;;;;5885285;28;20629;-67
2024/04/06 01:53:05;;;;;;;11.90;2.63;;;;;;;;;;5884792;28;20056;-67
2024/04/06 01:55:54;;;;;;;4.05;3.22;;;;;;;;;;5885307;28;20048;-67
2024/04/06 01:58:45;;;;;;;3.00;2.10;;;;;;;;;;5884748;28;20041;-67
2024/04/06 02:01:35;;;;;;;5.32;2.67;;;;;;;;;;5884642;28;20407;-67
2024/04/06 02:04:25;;;;;;;2.47;2.08;;;;;;;;;;5884605;28;20041;-67
2024/04/06 02:07:18;;;;;;;3.65;1.38;;;;;;;;;;5884711;28;20136;-67
2024/04/06 02:10:08;;;;;;;4.70;2.05;;;;;;;;;;5884330;28;20045;-67
2024/04/06 02:12:58;;;;;;;4.40;2.67;;;;;;;;;;5884779;28;20055;-67
2024/04/06 02:15:48;;;;;;;5.03;2.85;;;;;;;;;;5868131;28;20056;-67
2024/04/06 02:18:38;;;;;;;3.05;1.77;;;;;;;;;;5867930;28;20059;-67
2024/04/06 02:21:27;;;;;;;2.15;1.90;;;;;;;;;;5884425;28;20040;-67
2024/04/06 02:24:17;;;;;;;2.63;2.15;;;;;;;;;;5884304;28;20048;-67
2024/04/06 02:27:07;;;;;;;8.35;1.67;;;;;;;;;;5883891;28;20051;-67
2024/04/06 02:29:57;;;;;;;2.00;1.52;;;;;;;;;;5884718;28;20057;-67
2024/04/06 02:32:48;;;;;;;1.52;1.42;;;;;;;;;;5884104;28;20056;-67
2024/04/06 02:35:38;;;;;;;3.22;2.75;;;;;;;;;;5867809;28;20053;-67
2024/04/06 02:38:27;;;;;;;3.78;2.05;;;;;;;;;;5883942;28;20083;-67
2024/04/06 02:41:17;;;;;;;6.93;2.47;;;;;;;;;;5884111;28;20053;-67
2024/04/06 02:44:07;;;;;;;3.50;2.20;;;;;;;;;;5884128;28;20056;-67
2024/04/06 02:46:57;;;;;;;4.45;1.92;;;;;;;;;;5884325;28;20422;-67
2024/04/06 02:49:46;;;;;;;3.65;2.10;;;;;;;;;;5891644;28;20048;-67
2024/04/06 02:52:36;;;;;;;3.15;1.52;;;;;;;;;;5891799;28;20510;-67
2024/04/06 02:55:26;;;;;;;1.48;1.08;;;;;;;;;;5892128;28;20056;-67
2024/04/06 02:58:16;;;;;;;1.50;1.23;;;;;;;;;;5891803;28;20056;-67
2024/04/06 03:01:05;;;;;;;2.75;1.02;;;;;;;;;;5892081;28;20052;-67
2024/04/06 03:03:55;;;;;;;1.13;0.63;;;;;;;;;;5892293;28;20053;-67
2024/04/06 03:06:45;;;;;;;2.70;1.83;;;;;;;;;;5891856;28;20136;-67
2024/04/06 03:09:35;;;;;;;3.15;1.60;;;;;;;;;;5891700;28;20068;-67
2024/04/06 03:12:25;;;;;;;1.05;0.90;;;;;;;;;;5891450;28;20486;-67
2024/04/06 03:15:15;;;;;;;3.83;0.98;;;;;;;;;;5891586;28;20407;-67
2024/04/06 03:18:05;;;;;;;1.58;1.02;;;;;;;;;;5891601;28;20128;-67
2024/04/06 03:20:54;;;;;;;3.15;1.52;;;;;;;;;;5891949;28;20057;-67
2024/04/06 03:23:44;;;;;;;2.85;1.55;;;;;;;;;;5874831;28;20051;-67
2024/04/06 03:26:35;;;;;;;2.72;1.80;;;;;;;;;;5891444;28;20588;-67
2024/04/06 03:29:25;;;;;;;1.50;1.30;;;;;;;;;;5891612;28;20037;-67
2024/04/06 03:32:15;;;;;;;6.03;1.50;;;;;;;;;;5891405;28;20099;-67
2024/04/06 03:35:05;;;;;;;0.65;0.65;;;;;;;;;;5891351;28;20071;-67
2024/04/06 03:37:55;;;;;;;1.08;0.98;;;;;;;;;;5891915;28;20136;-67
2024/04/06 03:40:44;;;;;;;2.58;1.10;;;;;;;;;;5891394;28;20045;-67
2024/04/06 03:43:34;;;;;;;1.20;1.10;;;;;;;;;;5874724;28;20064;-67
2024/04/06 03:46:28;;;;;;;2.72;1.27;;;;;;;;;;5891133;28;20045;-67
2024/04/06 03:49:18;;;;;;;3.08;1.17;;;;;;;;;;5908060;28;20102;-67
2024/04/06 03:52:08;;;;;;;2.17;1.30;;;;;;;;;;5891102;28;20041;-67
2024/04/06 03:54:58;;;;;;;1.08;0.98;;;;;;;;;;5891814;28;20049;-67
2024/04/06 03:57:48;;;;;;;1.30;1.15;;;;;;;;;;5891136;28;20076;-67
2024/04/06 04:00:38;;;;;;;1.83;1.23;;;;;;;;;;5887274;28;20053;-67
2024/04/06 04:03:28;;;;;;;1.48;1.35;;;;;;;;;;5887236;28;20076;-67
2024/04/06 04:06:17;;;;;;;1.27;1.15;;;;;;;;;;5887287;28;20053;-67
2024/04/06 04:09:07;;;;;;;1.42;0.95;;;;;;;;;;5887291;28;20049;-67
2024/04/06 04:11:57;;;;;;;1.38;1.02;;;;;;;;;;5887564;28;20128;-67
2024/04/06 04:14:47;;;;;;;2.33;1.50;;;;;;;;;;5887611;28;20052;-67
2024/04/06 04:17:36;;;;;;;0.93;0.90;;;;;;;;;;5887274;28;20107;-67
2024/04/06 04:20:26;;;;;;;1.63;1.25;;;;;;;;;;5887311;28;20051;-67
2024/04/06 04:23:16;;;;;;;0.70;0.70;;;;;;;;;;5886850;28;20053;-67
2024/04/06 04:26:06;;;;;;;1.35;1.25;;;;;;;;;;5886916;28;20118;-67
2024/04/06 04:28:56;;;;;;;0.80;0.80;;;;;;;;;;5870381;28;20055;-67
2024/04/06 04:31:45;;;;;;;3.17;0.70;;;;;;;;;;5870145;28;20106;-67
2024/04/06 04:34:35;;;;;;;2.35;0.80;;;;;;;;;;5869799;28;20439;-67
2024/04/06 04:37:25;;;;;;;5.85;1.35;;;;;;;;;;5886597;28;20040;-67
2024/04/06 04:40:15;;;;;;;1.00;0.65;;;;;;;;;;5886630;28;20451;-67
2024/04/06 04:43:05;;;;;;;1.25;1.08;;;;;;;;;;5886686;28;20076;-67
2024/04/06 04:45:55;;;;;;;0.60;0.47;;;;;;;;;;5887104;28;20036;-67
2024/04/06 04:48:56;;;;;;;2.38;1.15;;;;;;;;;;5886323;28;20459;-67
2024/04/06 04:51:46;;;;;;;0.50;0.40;;;;;;;;;;5870272;28;20049;-67
2024/04/06 04:54:36;;;;;;;0.43;0.43;;;;;;;;;;5886575;28;20048;-67
2024/04/06 04:57:26;;;;;;;1.00;0.90;;;;;;;;;;5886219;28;20099;-67
2024/04/06 05:00:15;;;;;;;3.88;1.42;;;;;;;;;;5886309;28;20091;-67
2024/04/06 05:03:05;;;;;;;0.82;0.80;;;;;;;;;;5886323;28;20139;-67
2024/04/06 05:05:56;;;;;;;0.55;0.55;;;;;;;;;;5886835;28;20049;-67
2024/04/06 05:08:46;;;;;;;3.17;1.50;;;;;;;;;;5885988;28;20584;-67
2024/04/06 05:11:36;;;;;;;0.75;0.68;;;;;;;;;;5885588;28;20422;-67
2024/04/06 05:14:29;;;;;;;3.10;0.93;;;;;;;;;;5886042;28;20049;-67
2024/04/06 05:17:20;;;;;;;0.60;0.60;;;;;;;;;;5885820;28;20048;-67
2024/04/06 05:20:11;;;;;;;0.93;0.57;;;;;;;;;;5885933;28;20491;-67
2024/04/06 05:23:00;;;;;;;0.82;0.70;;;;;;;;;;5852953;28;20450;-67
2024/04/06 05:25:51;;;;;;;1.13;0.90;;;;;;;;;;5886357;28;20127;-67
2024/04/06 05:28:41;;;;;;;0.80;0.75;;;;;;;;;;5885674;28;20057;-67
2024/04/06 05:31:31;;;;;;;0.30;0.30;;;;;;;;;;5885504;28;20446;-67
2024/04/06 05:34:20;;;;;;;1.38;0.95;;;;;;;;;;5885248;28;20057;-67
2024/04/06 05:37:10;;;;;;;3.22;0.75;;;;;;;;;;5885482;28;20064;-67
2024/04/06 05:40:00;;;;;;;1.70;0.70;;;;;;;;;;5885967;28;20049;-67
2024/04/06 05:42:49;;;;;;;2.05;1.30;;;;;;;;;;5885449;28;20072;-67
2024/04/06 05:45:41;;;;;;;0.60;0.60;;;;;;;;;;5885303;28;20055;-67
2024/04/06 05:48:34;;;;;;;1.50;0.80;;;;;;;;;;5885278;28;20044;-67
2024/04/06 05:51:23;;;;;;;0.22;0.22;;;;;;;;;;5885448;28;20049;-67
2024/04/06 05:54:13;;;;;;;0.50;0.47;;;;;;;;;;5885049;28;20059;-67
2024/04/06 05:57:03;;;;;;;2.85;1.20;;;;;;;;;;5884967;28;20061;-67
2024/04/06 05:59:53;;;;;;;1.92;0.80;;;;;;;;;;5885486;28;20414;-67
2024/04/06 06:02:43;;;;;;;0.70;0.55;;;;;;;;;;5885127;28;20049;-67
2024/04/06 06:05:33;;;;;;;1.67;0.88;;;;;;;;;;5884978;28;20115;-67
2024/04/06 06:08:22;;;;;;;0.43;0.43;;;;;;;;;;5884847;28;20051;-67
2024/04/06 06:11:12;;;;;;;0.50;0.50;;;;;;;;;;5884830;28;20175;-67
2024/04/06 06:14:02;;;;;;;2.72;0.90;;;;;;;;;;5884446;28;20053;-67
2024/04/06 06:16:52;;;;;;;6.35;1.92;;;;;;;;;;5885108;28;20132;-67
2024/04/06 06:19:41;;;;;;;2.60;2.00;;;;;;;;;;5868056;28;20049;-67
2024/04/06 06:22:31;;;;;;;4.70;1.58;;;;;;;;;;5884182;28;20124;-68
2024/04/06 06:25:22;;;;;;;3.33;1.85;;;;;;;;;;5868001;28;20045;-67
2024/04/06 06:28:11;;;;;;;2.40;0.80;;;;;;;;;;5884552;28;20075;-67
2024/04/06 06:31:04;;;;;;;4.20;1.42;;;;;;;;;;5884251;28;20045;-67
2024/04/06 06:33:55;;;;;;;0.52;0.50;;;;;;;;;;5884598;28;20053;-67
2024/04/06 06:36:45;;;;;;;2.33;1.27;;;;;;;;;;5868143;28;20597;-67
2024/04/06 06:39:35;;;;;;;1.20;0.77;;;;;;;;;;5901170;28;20045;-67
2024/04/06 06:42:25;;;;;;;1.15;0.60;;;;;;;;;;5884441;28;20044;-67
2024/04/06 06:45:14;;;;;;;1.08;0.65;;;;;;;;;;5884217;28;20049;-67
2024/04/06 06:48:05;;;;;;;0.65;0.60;;;;;;;;;;5884203;28;20049;-67
2024/04/06 06:50:55;;;;;;;2.22;1.00;;;;;;;;;;5884777;28;20178;-67
2024/04/06 06:53:44;;;;;;;0.63;0.47;;;;;;;;;;5884108;28;20049;-67
2024/04/06 06:56:34;;;;;;;2.35;1.08;;;;;;;;;;5884434;28;20052;-67
2024/04/06 06:59:24;;;;;;;1.05;0.60;;;;;;;;;;5884221;28;20044;-67
2024/04/06 07:02:14;;;;;;;1.27;0.63;;;;;;;;;;5884541;28;20052;-67
2024/04/06 07:05:04;;;;;;;1.67;0.98;;;;;;;;;;5883996;28;20045;-67
2024/04/06 07:07:55;;;;;;;0.82;0.52;;;;;;;;;;5884564;28;20122;-67
2024/04/06 07:10:45;;;;;;;1.70;0.65;;;;;;;;;;5867448;28;20053;-68
2024/04/06 07:13:36;;;;;;;6.75;2.63;;;;;;;;;;5883906;28;20491;-68
2024/04/06 07:16:27;;;;;;;0.40;0.40;;;;;;;;;;5884158;28;20044;-68
2024/04/06 07:19:16;;;;;;;3.13;0.73;;;;;;;;;;5884255;28;20045;-68
2024/04/06 07:22:06;;;;;;;1.58;0.75;;;;;;;;;;5884053;28;20045;-68
2024/04/06 07:24:56;;;;;;;1.30;0.60;;;;;;;;;;5867881;28;20048;-67
2024/04/06 07:27:46;;;;;;;5.57;0.28;;;;;;;;;;5884141;28;20053;-68
2024/04/06 07:30:35;;;;;;;2.13;0.80;;;;;;;;;;5883879;28;20503;-68
2024/04/06 07:33:27;;;;;;;0.47;0.30;;;;;;;;;;5883772;28;20041;-68
2024/04/06 07:36:18;;;;;;;1.85;0.70;;;;;;;;;;5887272;28;20041;-68
2024/04/06 07:39:08;;;;;;;0.77;0.45;;;;;;;;;;5904715;28;20051;-68
2024/04/06 07:41:57;;;;;;;0.68;0.68;;;;;;;;;;5888727;28;20049;-68
2024/04/06 07:44:47;;;;;;;0.45;0.40;;;;;;;;;;5888418;28;20494;-68
2024/04/06 07:47:37;;;;;;;6.32;1.80;;;;;;;;;;5888258;28;20238;-68
2024/04/06 07:50:27;;;;;;;1.10;0.57;;;;;;;;;;5888011;28;20041;-68
2024/04/06 07:53:18;;;;;;;0.40;0.40;;;;;;;;;;5887742;28;20045;-68
2024/04/06 07:56:08;;;;;;;3.17;0.70;;;;;;;;;;5887909;28;20061;-68
2024/04/06 07:58:57;;;;;;;0.20;0.20;;;;;;;;;;5888315;28;20124;-68
2024/04/06 08:01:47;;;;;;;2.28;0.63;;;;;;;;;;5887827;28;20052;-68
2024/04/06 08:04:37;;;;;;;1.52;0.40;;;;;;;;;;5871150;28;20053;-68
2024/04/06 08:07:27;;;;;;;0.10;0.10;;;;;;;;;;5887784;28;20053;-68
2024/04/06 08:10:22;;;;;;;3.05;0.50;;;;;;;;;;5887639;28;20090;-68
2024/04/06 08:13:12;;;;;;;9.43;0.65;;;;;;;;;;5887355;28;20049;-68
2024/04/06 08:16:02;;;;;;;0.98;0.35;;;;;;;;;;5887710;28;20497;-68
2024/04/06 08:18:52;;;;;;;0.80;0.50;;;;;;;;;;5887791;28;20060;-68
2024/04/06 08:21:42;;;;;;;0.15;0.10;;;;;;;;;;5887327;28;20048;-68
2024/04/06 08:24:32;;;;;;;4.93;0.73;;;;;;;;;;5887241;28;20521;-68
2024/04/06 08:27:21;;;;;;;0.55;0.50;;;;;;;;;;5870493;28;20041;-68
2024/04/06 08:30:12;;;;;;;1.52;0.75;;;;;;;;;;5870794;28;20060;-68
2024/04/06 08:33:02;;;;;;;4.88;0.95;;;;;;;;;;5887110;28;20588;-68
2024/04/06 08:35:59;;;;;;;0.40;0.40;;;;;;;;;;5887521;28;20556;-68
2024/04/06 08:38:50;;;;;;;1.20;0.20;;;;;;;;;;5870831;28;20049;-68
2024/04/06 08:41:40;;;;;;;1.77;0.47;;;;;;;;;;5886884;28;20522;-68
2024/04/06 08:44:43;;;;;;;0.50;0.35;;;;;;;;;;5886938;28;20044;-68
2024/04/06 08:47:34;;;;;;;2.33;0.57;;;;;;;;;;5886292;28;20041;-68
2024/04/06 08:50:24;;;;;;;0.30;0.30;;;;;;;;;;5886663;28;20052;-67
2024/04/06 08:53:14;;;;;;;1.45;1.05;;;;;;;;;;5886642;28;20049;-68
2024/04/06 08:56:08;;;;;;;0.75;0.45;;;;;;;;;;5886844;28;20056;-68
2024/04/06 08:59:01;;;;;;;0.65;0.45;;;;;;;;;;5870560;28;20482;-68
2024/04/06 09:01:50;;;;;;;0.63;0.25;;;;;;;;;;5886540;28;20052;-68
2024/04/06 09:04:40;;;;;;;3.78;0.82;;;;;;;;;;5886526;28;20053;-68
2024/04/06 09:07:30;;;;;;;2.90;0.90;;;;;;;;;;5886572;28;20045;-68
2024/04/06 09:10:24;;;;;;;0.73;0.52;;;;;;;;;;5886243;28;20079;-68
2024/04/06 09:13:14;;;;;;;0.63;0.35;;;;;;;;;;5886203;28;20128;-68
2024/04/06 09:16:07;;;;;;;1.13;0.82;;;;;;;;;;5885979;28;20049;-68
2024/04/06 09:18:57;;;;;;;1.85;0.63;;;;;;;;;;5886603;28;20073;-68
2024/04/06 09:21:47;;;;;;;0.85;0.65;;;;;;;;;;5886079;28;20239;-68
2024/04/06 09:24:38;;;;;;;1.02;0.40;;;;;;;;;;5886075;28;20045;-68
2024/04/06 09:27:28;;;;;;;0.68;0.55;;;;;;;;;;5885967;28;20053;-68
2024/04/06 09:30:41;;;;;;;4.15;0.73;;;;;;;;;;5885925;28;20049;-68
2024/04/06 09:33:32;;;;;;;2.55;1.13;;;;;;;;;;5870995;28;20044;-67
2024/04/06 09:36:23;;;;;;;0.90;0.55;;;;;;;;;;5869209;28;20053;-68
2024/04/06 09:39:13;;;;;;;1.40;0.85;;;;;;;;;;5885756;28;20036;-68
2024/04/06 09:42:05;;;;;;;1.80;0.50;;;;;;;;;;5901968;28;20045;-68
2024/04/06 09:44:56;;;;;;;0.30;0.30;;;;;;;;;;5885643;28;20045;-68
2024/04/06 09:47:46;;;;;;;0.57;0.32;;;;;;;;;;5871660;28;20057;-68
2024/04/06 09:50:39;;;;;;;0.30;0.30;;;;;;;;;;5865880;28;20057;-68
2024/04/06 09:53:29;;;;;;;1.70;0.50;;;;;;;;;;5885687;28;20045;-68
2024/04/06 09:56:20;;;;;;;0.60;0.60;;;;;;;;;;5884450;28;20422;-68
2024/04/06 09:59:26;;;;;;;0.65;0.45;;;;;;;;;;5884720;28;20045;-68
2024/04/06 10:02:23;;;;;;;1.35;0.47;;;;;;;;;;5885460;28;20041;-68
2024/04/06 10:05:13;;;;;;;0.55;0.40;;;;;;;;;;5885882;28;20052;-69
2024/04/06 10:08:03;;;;;;;0.93;0.50;;;;;;;;;;5885440;28;20056;-68
2024/04/06 10:11:00;;;;;;;5.15;0.40;;;;;;;;;;5885781;28;20049;-68
2024/04/06 10:14:02;;;;;;;1.08;0.55;;;;;;;;;;5885530;28;20041;-68
2024/04/06 10:17:06;;;;;;;1.45;0.38;;;;;;;;;;5885287;28;20052;-68
2024/04/06 10:19:56;;;;;;;0.93;0.35;;;;;;;;;;5885510;28;20041;-68
2024/04/06 10:22:55;;;;;;;2.35;0.63;;;;;;;;;;5868640;28;20056;-69
2024/04/06 10:25:45;;;;;;;;;;;;;;;;;;5886014;28;20040;-69
2024/04/06 10:28:35;;;;;;;2.65;0.30;;;;;;;;;;5849873;28;19922;-69
2024/04/06 10:31:24;;;;;;;6.13;1.10;;;;;;;;;;5861874;28;20053;-67
2024/04/06 10:34:16;;;;;;;1.35;0.40;;;;;;;;;;5862034;28;20096;-69
2024/04/06 10:37:06;;;;;;;0.60;0.50;;;;;;;;;;5862204;28;20514;-69
2024/04/06 10:39:56;;;;;;;0.60;0.50;;;;;;;;;;5867440;28;20136;-69
2024/04/06 10:42:46;;;;;;;0.30;0.30;;;;;;;;;;5873517;28;20045;-69
2024/04/06 10:45:36;;;;;;;0.47;0.47;;;;;;;;;;5885496;28;20063;-68
2024/04/06 10:48:31;;;;;;;5.07;0.52;;;;;;;;;;5884779;28;20048;-69
2024/04/06 10:51:25;;;;;;;2.30;0.40;;;;;;;;;;5884687;28;20064;-68
2024/04/06 10:54:15;;;;;;;0.93;0.45;;;;;;;;;;5868696;28;20045;-69
2024/04/06 10:57:06;;;;;;;3.95;0.68;;;;;;;;;;5884991;28;20428;-68
2024/04/06 10:59:56;;;;;;;1.35;0.20;;;;;;;;;;5885257;28;20045;-68
2024/04/06 11:02:47;;;;;;;0.45;0.40;;;;;;;;;;5868261;28;20053;-68
2024/04/06 11:05:38;;;;;;;0.43;0.32;;;;;;;;;;5884746;28;20045;-68
2024/04/06 11:08:29;;;;;;;1.90;0.82;;;;;;;;;;5884950;28;20102;-69
2024/04/06 11:11:19;;;;;;;0.30;0.30;;;;;;;;;;5869290;28;20057;-68
2024/04/06 11:14:10;;;;;;;0.77;0.55;;;;;;;;;;5888884;28;20091;-68
2024/04/06 11:17:00;;;;;;;1.00;0.30;;;;;;;;;;5889399;28;20049;-70
2024/04/06 11:19:59;;;;;;;0.32;0.28;;;;;;;;;;5889160;28;20119;-69
2024/04/06 11:22:50;;;;;;;1.45;0.30;;;;;;;;;;5889184;28;20072;-68
2024/04/06 11:25:39;;;;;;;3.05;0.93;;;;;;;;;;5889415;28;20045;-68
2024/04/06 11:28:29;;;;;;;1.40;1.02;;;;;;;;;;5888551;28;20055;-69
2024/04/06 11:31:21;;;;;;;0.35;0.35;;;;;;;;;;5882482;28;20049;-69
2024/04/06 11:34:11;;;;;;;0.88;0.50;;;;;;;;;;5872726;28;20427;-69
2024/04/06 11:37:01;;;;;;;0.68;0.30;;;;;;;;;;5889115;28;20132;-69
2024/04/06 11:39:51;;;;;;;3.33;1.00;;;;;;;;;;5889244;28;20430;-70
2024/04/06 11:42:41;;;;;;;3.95;1.27;;;;;;;;;;5868992;28;20049;-69
2024/04/06 11:45:31;;;;;;;2.00;0.30;;;;;;;;;;5857249;28;20049;-69
2024/04/06 11:48:22;;;;;;;1.02;0.32;;;;;;;;;;5867133;28;20055;-70
2024/04/06 11:51:11;;;;;;;0.85;0.75;;;;;;;;;;5865107;28;20127;-69
2024/04/06 11:54:01;;;;;;;2.38;0.60;;;;;;;;;;5864905;28;20053;-69
2024/04/06 11:56:52;;;;;;;0.73;0.40;;;;;;;;;;5865613;28;20049;-69
2024/04/06 11:59:42;;;;;;;1.77;0.88;;;;;;;;;;5847904;28;20048;-69
2024/04/06 12:02:32;;;;;;;0.25;0.25;;;;;;;;;;5880791;28;20623;-69
2024/04/06 12:05:22;;;;;;;1.42;0.30;;;;;;;;;;5887477;28;20124;-69
2024/04/06 12:08:12;;;;;;;2.50;0.70;;;;;;;;;;5887798;28;20414;-69
2024/04/06 12:11:02;;;;;;;0.43;0.43;;;;;;;;;;5870968;28;20103;-70
2024/04/06 12:13:53;;;;;;;2.38;0.57;;;;;;;;;;5887341;28;20086;-70
2024/04/06 12:16:43;;;;;;;3.53;0.70;;;;;;;;;;5887667;28;20040;-69
2024/04/06 12:19:32;;;;;;;1.17;0.57;;;;;;;;;;5870761;28;20479;-69
2024/04/06 12:22:23;;;;;;;0.55;0.47;;;;;;;;;;5886227;28;20037;-69
2024/04/06 12:25:12;;;;;;;0.60;0.40;;;;;;;;;;5887031;28;20049;-69
2024/04/06 12:28:03;;;;;;;4.35;1.05;;;;;;;;;;5887004;28;20045;-70
2024/04/06 12:30:53;;;;;;;0.30;0.30;;;;;;;;;;5870740;28;20125;-69
2024/04/06 12:33:42;;;;;;;0.80;0.50;;;;;;;;;;5886961;28;20048;-69
2024/04/06 12:36:32;;;;;;;0.50;0.40;;;;;;;;;;5887159;28;20048;-69
2024/04/06 12:39:22;;;;;;;2.38;0.55;;;;;;;;;;5886476;28;20073;-69
2024/04/06 12:42:12;;;;;;;1.33;0.40;;;;;;;;;;5886251;28;20502;-69
2024/04/06 12:45:02;;;;;;;0.43;0.13;;;;;;;;;;5886921;28;20545;-69
2024/04/06 12:47:52;;;;;;;1.58;0.35;;;;;;;;;;5887324;28;20053;-69
2024/04/06 12:50:46;;;;;;;2.08;0.93;;;;;;;;;;5886697;28;20094;-69
2024/04/06 12:53:36;;;;;;;2.33;0.85;;;;;;;;;;5886690;28;20429;-69
2024/04/06 12:56:27;;;;;;;0.73;0.45;;;;;;;;;;5886658;28;20041;-69
2024/04/06 12:59:17;;;;;;;0.90;0.40;;;;;;;;;;5870298;28;20483;-69
2024/04/06 13:02:06;;;;;;;0.15;0.15;;;;;;;;;;5886743;28;20056;-69
2024/04/06 13:04:56;;;;;;;0.55;0.40;;;;;;;;;;5887018;28;20053;-69
2024/04/06 13:07:46;;;;;;;3.40;0.73;;;;;;;;;;5876982;28;20061;-69
2024/04/06 13:10:36;;;;;;;0.55;0.55;;;;;;;;;;5863297;28;20427;-70
2024/04/06 13:13:25;;;;;;;0.30;0.20;;;;;;;;;;5846513;28;20065;-69
2024/04/06 13:16:15;;;;;;;0.98;0.45;;;;;;;;;;5862975;28;20041;-69
2024/04/06 13:19:05;;;;;;;0.63;0.40;;;;;;;;;;5846278;28;20049;-69
2024/04/06 13:21:55;;;;;;;0.70;0.38;;;;;;;;;;5861301;28;20041;-69
2024/04/06 13:24:45;;;;;;;2.35;0.88;;;;;;;;;;5878594;28;20048;-69
2024/04/06 13:27:35;;;;;;;5.43;0.68;;;;;;;;;;5846814;28;20506;-69
2024/04/06 13:30:26;;;;;;;2.88;0.85;;;;;;;;;;5863337;28;20045;-69
2024/04/06 13:33:15;;;;;;;3.63;0.60;;;;;;;;;;5874055;28;20049;-69
2024/04/06 13:36:06;;;;;;;1.48;0.93;;;;;;;;;;5873598;28;20072;-69
2024/04/06 13:38:56;;;;;;;3.30;0.55;;;;;;;;;;5863386;28;20450;-69
2024/04/06 13:41:49;;;;;;;2.15;0.63;;;;;;;;;;5862841;28;20156;-69
2024/04/06 13:44:39;;;;;;;0.17;0.17;;;;;;;;;;5863016;28;20050;-69
2024/04/06 13:47:29;;;;;;;1.67;0.43;;;;;;;;;;5862503;28;20491;-69
2024/04/06 13:50:19;;;;;;;0.68;0.45;;;;;;;;;;5862863;28;20052;-69
2024/04/06 13:53:12;;;;;;;0.45;0.35;;;;;;;;;;5862292;28;20049;-69
2024/04/06 13:56:02;;;;;;;2.38;0.40;;;;;;;;;;5862524;28;20068;-69
2024/04/06 13:58:53;;;;;;;0.88;0.47;;;;;;;;;;5862863;28;20046;-69
2024/04/06 14:01:44;;;;;;;20.13;0.68;;;;;;;;;;5862042;28;20045;-69
2024/04/06 14:04:33;;;;;;;0.85;0.20;;;;;;;;;;5884937;28;20091;-69
2024/04/06 14:07:23;;;;;;;1.40;0.52;;;;;;;;;;5878932;28;20045;-69
2024/04/06 14:10:14;;;;;;;0.40;0.35;;;;;;;;;;5862223;28;20526;-68
2024/04/06 14:13:04;;;;;;;1.70;0.77;;;;;;;;;;5862053;28;20045;-69
2024/04/06 14:15:57;;;;;;;0.65;0.45;;;;;;;;;;5862657;28;20046;-68
2024/04/06 14:18:47;;;;;;;12.68;1.20;;;;;;;;;;5861929;28;20049;-68
2024/04/06 14:21:37;;;;;;;4.55;0.85;;;;;;;;;;5862423;28;20057;-69
2024/04/06 14:24:27;;;;;;;18.88;0.60;;;;;;;;;;5884396;28;20556;-69
2024/04/06 14:27:16;;;;;;;1.88;0.95;;;;;;;;;;5880841;28;20099;-69
2024/04/06 14:30:24;;;;;;;0.63;0.50;;;;;;;;;;5862234;28;20049;-68
2024/04/06 14:33:14;;;;;;;0.80;0.50;;;;;;;;;;5861565;28;20049;-68
2024/04/06 14:36:04;;;;;;;0.43;0.32;;;;;;;;;;5868388;28;20130;-68
2024/04/06 14:38:54;;;;;;;1.45;0.45;;;;;;;;;;5866573;28;20052;-68
2024/04/06 14:41:44;;;;;;;1.13;0.52;;;;;;;;;;5862078;28;20077;-68
2024/04/06 14:44:34;;;;;;;0.35;0.35;;;;;;;;;;5844712;28;20049;-69
2024/04/06 14:47:24;;;;;;;0.95;0.68;;;;;;;;;;5873256;28;20065;-69
2024/04/06 14:50:14;;;;;;;1.48;0.73;;;;;;;;;;5845530;28;20049;-68
2024/04/06 14:53:03;;;;;;;1.10;0.38;;;;;;;;;;5864083;28;20128;-69
2024/04/06 14:55:54;;;;;;;4.00;1.10;;;;;;;;;;5880299;28;20052;-68
2024/04/06 14:58:45;;;;;;;4.13;0.80;;;;;;;;;;5884615;28;20052;-68
2024/04/06 15:01:36;;;;;;;0.43;0.38;;;;;;;;;;5867878;28;20055;-68
2024/04/06 15:04:26;;;;;;;0.43;0.40;;;;;;;;;;5868246;28;20068;-68
2024/04/06 15:07:16;;;;;;;0.75;0.35;;;;;;;;;;5884386;28;20060;-68
2024/04/06 15:10:06;;;;;;;1.10;0.75;;;;;;;;;;5884069;28;20060;-68
2024/04/06 15:12:56;;;;;;;1.65;0.88;;;;;;;;;;5885158;28;20045;-68
2024/04/06 15:15:46;;;;;;;0.73;0.52;;;;;;;;;;5884479;28;20068;-68
2024/04/06 15:18:36;;;;;;;3.33;0.75;;;;;;;;;;5884335;28;20088;-68
2024/04/06 15:21:26;;;;;;;0.60;0.60;;;;;;;;;;5884580;28;20053;-68
2024/04/06 15:24:16;;;;;;;3.72;0.85;;;;;;;;;;5867834;28;20822;-68
2024/04/06 15:27:05;;;;;;;16.02;2.67;;;;;;;;;;5859253;28;20426;-68
2024/04/06 15:29:55;;;;;;;4.78;1.63;;;;;;;;;;5861352;28;20080;-68
2024/04/06 15:32:45;;;;;;;4.65;1.85;;;;;;;;;;5861248;28;20095;-68
2024/04/06 15:35:35;;;;;;;1.15;0.82;;;;;;;;;;5850005;28;20103;-68
2024/04/06 15:38:25;;;;;;;1.55;0.70;;;;;;;;;;5860994;28;20037;-68
2024/04/06 15:41:15;;;;;;;1.45;1.02;;;;;;;;;;5879345;28;20419;-68
2024/04/06 15:44:05;;;;;;;2.30;0.85;;;;;;;;;;5883680;28;20055;-68
2024/04/06 15:46:55;;;;;;;0.47;0.43;;;;;;;;;;5883518;28;20052;-68
2024/04/06 15:49:45;;;;;;;5.63;0.50;;;;;;;;;;5884463;28;20045;-69
2024/04/06 15:52:35;;;;;;;0.60;0.60;;;;;;;;;;5884477;28;20487;-69
2024/04/06 15:55:25;;;;;;;0.22;0.22;;;;;;;;;;5872032;28;20072;-68
2024/04/06 15:58:14;;;;;;;0.38;0.25;;;;;;;;;;5880225;28;20053;-68
2024/04/06 16:01:04;;;;;;;1.08;0.20;;;;;;;;;;5871859;28;20056;-68
2024/04/06 16:03:54;;;;;;;0.50;0.38;;;;;;;;;;5865659;28;20052;-68
2024/04/06 16:06:44;;;;;;;0.80;0.60;;;;;;;;;;5848297;28;20056;-68
2024/04/06 16:09:35;;;;;;;1.20;0.55;;;;;;;;;;5864024;28;20057;-68
2024/04/06 16:12:26;;;;;;;1.58;0.80;;;;;;;;;;5864822;28;20041;-68
2024/04/06 16:15:16;;;;;;;1.05;0.70;;;;;;;;;;5864561;28;20053;-68
2024/04/06 16:18:05;;;;;;;1.25;0.70;;;;;;;;;;5864448;28;20064;-68
2024/04/06 16:20:55;;;;;;;10.98;1.63;;;;;;;;;;5865164;28;20393;-68
2024/04/06 16:23:46;;;;;;;0.63;0.63;;;;;;;;;;5864886;28;20073;-68
2024/04/06 16:26:36;;;;;;;1.25;0.93;;;;;;;;;;5864213;28;20458;-68
2024/04/06 16:29:26;;;;;;;1.05;0.77;;;;;;;;;;5886252;28;20052;-68
2024/04/06 16:32:19;;;;;;;7.93;3.63;;;;;;;;;;5887671;28;20053;-68
2024/04/06 16:35:09;;;;;;;0.85;0.52;;;;;;;;;;5887501;28;20495;-68
2024/04/06 16:37:58;;;;;;;6.68;0.80;;;;;;;;;;5887687;28;20414;-68
2024/04/06 16:40:49;;;;;;;1.17;0.57;;;;;;;;;;5886804;28;20155;-68
2024/04/06 16:43:39;;;;;;;0.63;0.63;;;;;;;;;;5887879;28;20418;-68
2024/04/06 16:46:30;;;;;;;1.33;0.82;;;;;;;;;;5880493;28;20049;-69
2024/04/06 16:49:20;;;;;;;4.93;1.17;;;;;;;;;;5860047;28;20056;-69
2024/04/06 16:52:09;;;;;;;31.02;2.72;;;;;;;;;;5864230;28;20045;-69
2024/04/06 16:54:59;;;;;;;3.30;2.28;;;;;;;;;;5872201;28;20049;-69
2024/04/06 16:57:49;;;;;;;8.02;3.08;;;;;;;;;;5886759;28;20056;-68
2024/04/06 17:00:39;;;;;;;1.55;1.40;;;;;;;;;;5886344;28;20450;-68
2024/04/06 17:03:29;;;;;;;1.48;1.00;;;;;;;;;;5887245;28;20041;-68